createdAt,value
2018-05-26T00:00:37.695Z,91.10
2018-05-26T00:03:05.112Z,91.30
2018-05-26T00:05:32.547Z,92.00
2018-05-26T00:07:59.970Z,92.50
2018-05-26T00:10:27.399Z,93.80
2018-05-26T00:12:54.831Z,93.90
2018-05-26T00:15:22.295Z,94.80
2018-05-26T00:17:50.521Z,97.20
2018-05-26T00:20:17.941Z,95.60
2018-05-26T00:22:51.860Z,98.40
2018-05-26T00:25:19.320Z,96.80
2018-05-26T00:27:47.509Z,99.10
2018-05-26T00:30:15.688Z,99.60
2018-05-26T00:32:43.883Z,99.90
2018-05-26T00:35:12.077Z,99.90
2018-05-26T00:37:40.272Z,99.90
2018-05-26T00:40:07.731Z,99.90
2018-05-26T00:42:35.924Z,99.90
2018-05-26T00:45:04.131Z,99.90
2018-05-26T00:47:31.552Z,99.90
2018-05-26T00:49:59.736Z,99.90
2018-05-26T00:52:27.184Z,99.90
2018-05-26T00:54:55.739Z,99.90
2018-05-26T00:57:23.160Z,99.90
2018-05-26T00:59:50.637Z,99.90
2018-05-26T01:02:18.077Z,99.90
2018-05-26T01:04:45.505Z,99.90
2018-05-26T01:07:13.689Z,99.90
2018-05-26T01:09:41.896Z,99.90
2018-05-26T01:12:09.303Z,99.90
2018-05-26T01:14:36.736Z,99.90
2018-05-26T01:17:04.164Z,99.90
2018-05-26T01:19:31.611Z,99.90
2018-05-26T01:21:59.061Z,99.90
2018-05-26T01:24:26.484Z,99.90
2018-05-26T01:26:54.680Z,99.90
2018-05-26T01:29:22.889Z,99.90
2018-05-26T01:31:50.320Z,99.90
2018-05-26T01:34:18.523Z,99.90
2018-05-26T01:36:46.720Z,99.90
2018-05-26T01:39:14.142Z,99.90
2018-05-26T01:41:41.576Z,99.90
2018-05-26T01:44:09.034Z,99.90
2018-05-26T01:46:36.462Z,99.90
2018-05-26T01:49:03.894Z,99.90
2018-05-26T01:51:31.325Z,99.90
2018-05-26T01:53:59.516Z,99.90
2018-05-26T01:56:27.701Z,99.90
2018-05-26T01:58:55.134Z,99.90
2018-05-26T02:01:23.313Z,99.90
2018-05-26T02:03:50.758Z,99.90
2018-05-26T02:06:18.181Z,99.90
2018-05-26T02:08:45.625Z,99.90
2018-05-26T02:11:13.822Z,99.90
2018-05-26T02:13:42.025Z,99.90
2018-05-26T02:16:09.457Z,99.90
2018-05-26T02:18:36.886Z,99.90
2018-05-26T02:21:04.321Z,99.90
2018-05-26T02:23:32.514Z,99.90
2018-05-26T02:26:00.696Z,99.90
2018-05-26T02:28:28.888Z,99.90
2018-05-26T02:30:56.319Z,99.90
2018-05-26T02:33:23.750Z,99.90
2018-05-26T02:35:51.185Z,99.90
2018-05-26T02:38:19.374Z,99.90
2018-05-26T02:40:47.599Z,99.90
2018-05-26T02:43:15.021Z,99.90
2018-05-26T02:45:42.449Z,99.90
2018-05-26T02:48:09.876Z,99.90
2018-05-26T02:50:38.072Z,99.90
2018-05-26T02:53:05.497Z,99.90
2018-05-26T02:55:32.946Z,99.90
2018-05-26T02:58:00.533Z,99.90
2018-05-26T03:00:27.967Z,99.90
2018-05-26T03:02:55.400Z,99.90
2018-05-26T03:05:29.266Z,99.90
2018-05-26T03:08:02.522Z,99.90
2018-05-26T03:10:35.564Z,99.90
2018-05-26T03:13:08.696Z,99.90
2018-05-26T03:15:36.124Z,99.90
2018-05-26T03:18:12.444Z,99.90
2018-05-26T03:20:39.859Z,99.90
2018-05-26T03:23:07.294Z,99.90
2018-05-26T03:25:35.487Z,99.90
2018-05-26T03:28:03.002Z,99.90
2018-05-26T03:30:30.419Z,99.90
2018-05-26T03:32:58.651Z,99.90
2018-05-26T03:35:26.863Z,99.90
2018-05-26T03:37:54.288Z,99.90
2018-05-26T03:40:21.718Z,99.90
2018-05-26T03:42:49.159Z,99.90
2018-05-26T03:45:16.574Z,99.90
2018-05-26T03:47:44.784Z,99.90
2018-05-26T03:50:12.224Z,99.90
2018-05-26T03:52:40.437Z,99.90
2018-05-26T03:55:29.383Z,99.90
2018-05-26T03:58:08.644Z,99.90
2018-05-26T04:00:36.499Z,99.90
2018-05-26T04:03:03.925Z,99.90
2018-05-26T04:05:31.353Z,99.90
2018-05-26T04:07:59.550Z,99.90
2018-05-26T04:10:26.978Z,99.90
2018-05-26T04:12:54.424Z,99.90
2018-05-26T04:15:21.874Z,99.90
2018-05-26T04:17:49.322Z,99.90
2018-05-26T04:20:16.739Z,99.90
2018-05-26T04:22:44.186Z,99.90
2018-05-26T04:25:11.614Z,99.90
2018-05-26T04:27:39.034Z,99.90
2018-05-26T04:30:06.472Z,99.90
2018-05-26T04:32:33.931Z,99.90
2018-05-26T04:35:01.389Z,99.90
2018-05-26T04:37:29.596Z,99.90
2018-05-26T04:39:57.769Z,99.90
2018-05-26T04:42:25.254Z,99.90
2018-05-26T04:44:52.676Z,99.90
2018-05-26T04:47:20.111Z,99.90
2018-05-26T04:49:47.552Z,99.90
2018-05-26T04:52:15.753Z,99.90
2018-05-26T04:54:43.172Z,99.90
2018-05-26T04:57:10.705Z,99.90
2018-05-26T04:59:38.163Z,99.90
2018-05-26T05:02:05.600Z,99.90
2018-05-26T05:04:33.028Z,99.80
2018-05-26T05:07:00.457Z,99.60
2018-05-26T05:09:28.697Z,94.10
2018-05-26T05:11:56.080Z,93.10
2018-05-26T05:14:24.272Z,92.70
2018-05-26T05:16:52.463Z,91.20
2018-05-26T05:19:19.885Z,90.30
2018-05-26T05:21:47.339Z,91.20
2018-05-26T05:24:14.759Z,90.60
2018-05-26T05:26:43.005Z,88.40
2018-05-26T05:29:10.400Z,86.70
2018-05-26T05:31:37.830Z,88.10
2018-05-26T05:34:05.262Z,85.20
2018-05-26T05:36:32.676Z,84.80
2018-05-26T05:39:00.109Z,81.50
2018-05-26T05:41:27.547Z,80.70
2018-05-26T05:43:55.742Z,78.20
2018-05-26T05:46:23.932Z,77.80
2018-05-26T05:48:52.132Z,75.80
2018-05-26T05:51:20.318Z,75.70
2018-05-26T05:53:47.740Z,74.30
2018-05-26T05:56:15.197Z,74.00
2018-05-26T05:58:42.601Z,73.60
2018-05-26T06:01:10.033Z,72.00
2018-05-26T06:03:37.480Z,71.10
2018-05-26T06:06:04.873Z,71.30
2018-05-26T06:08:33.078Z,70.60
2018-05-26T06:11:00.505Z,69.20
2018-05-26T06:13:27.929Z,68.80
2018-05-26T06:15:56.119Z,67.40
2018-05-26T06:18:23.553Z,66.00
2018-05-26T06:20:50.985Z,64.30
2018-05-26T06:23:18.409Z,62.70
2018-05-26T06:25:45.840Z,64.50
2018-05-26T06:28:13.273Z,60.30
2018-05-26T06:30:41.471Z,61.60
2018-05-26T06:33:09.660Z,59.50
2018-05-26T06:35:37.113Z,58.60
2018-05-26T06:38:04.553Z,57.00
2018-05-26T06:40:32.741Z,57.40
2018-05-26T06:43:00.938Z,55.50
2018-05-26T06:45:29.132Z,55.20
2018-05-26T06:47:56.564Z,54.30
2018-05-26T06:50:23.985Z,54.40
2018-05-26T06:52:51.397Z,57.20
2018-05-26T06:55:18.831Z,55.10
2018-05-26T06:57:46.290Z,57.00
2018-05-26T07:00:14.508Z,55.20
2018-05-26T07:02:42.694Z,54.10
2018-05-26T07:05:10.114Z,53.40
2018-05-26T07:07:38.309Z,55.50
2018-05-26T07:10:06.496Z,53.00
2018-05-26T07:12:34.676Z,55.30
2018-05-26T07:15:02.889Z,50.40
2018-05-26T07:17:30.311Z,49.40
2018-05-26T07:19:57.737Z,49.30
2018-05-26T07:22:25.169Z,46.90
2018-05-26T07:24:52.591Z,43.80
2018-05-26T07:27:20.030Z,43.60
2018-05-26T07:29:48.213Z,39.10
2018-05-26T07:32:15.624Z,38.80
2018-05-26T07:34:43.046Z,39.10
2018-05-26T07:37:10.484Z,40.30
2018-05-26T07:39:38.672Z,41.30
2018-05-26T07:42:06.864Z,40.10
2018-05-26T07:44:35.060Z,38.80
2018-05-26T07:47:03.268Z,39.50
2018-05-26T07:49:30.676Z,39.10
2018-05-26T07:51:58.099Z,36.10
2018-05-26T07:54:25.535Z,35.90
2018-05-26T07:56:53.727Z,34.00
2018-05-26T07:59:21.916Z,33.00
2018-05-26T08:01:50.107Z,32.20
2018-05-26T08:04:17.532Z,31.70
2018-05-26T08:06:44.957Z,34.40
2018-05-26T08:09:12.371Z,33.20
2018-05-26T08:11:39.808Z,31.70
2018-05-26T08:14:07.263Z,31.50
2018-05-26T08:16:34.693Z,30.90
2018-05-26T08:19:02.109Z,31.80
2018-05-26T08:21:29.548Z,32.50
2018-05-26T08:23:57.776Z,30.00
2018-05-26T08:26:25.212Z,29.90
2018-05-26T08:28:52.664Z,31.70
2018-05-26T08:31:20.075Z,30.70
2018-05-26T08:33:47.549Z,30.40
2018-05-26T08:36:14.940Z,26.80
2018-05-26T08:38:42.358Z,25.80
2018-05-26T08:41:10.557Z,24.20
2018-05-26T08:43:37.983Z,24.10
2018-05-26T08:46:05.395Z,25.00
2018-05-26T08:48:32.819Z,25.60
2018-05-26T08:51:00.255Z,23.90
2018-05-26T08:53:27.680Z,23.60
2018-05-26T08:55:55.865Z,21.70
2018-05-26T08:58:24.066Z,21.80
2018-05-26T09:00:52.237Z,20.20
2018-05-26T09:03:20.428Z,20.60
2018-05-26T09:05:48.621Z,20.40
2018-05-26T09:08:16.808Z,19.70
2018-05-26T09:10:44.235Z,19.70
2018-05-26T09:13:11.693Z,18.80
2018-05-26T09:15:39.116Z,18.10
2018-05-26T09:18:07.309Z,18.70
2018-05-26T09:20:34.731Z,18.60
2018-05-26T09:23:02.160Z,17.10
2018-05-26T09:25:29.670Z,17.40
2018-05-26T09:27:57.001Z,17.20
2018-05-26T09:30:24.441Z,15.70
2018-05-26T09:32:52.621Z,9.80
2018-05-26T09:35:20.804Z,9.20
2018-05-26T09:37:48.988Z,8.70
2018-05-26T09:40:16.437Z,8.30
2018-05-26T09:42:43.861Z,6.30
2018-05-26T09:45:12.043Z,3.40
2018-05-26T09:47:39.492Z,3.50
2018-05-26T09:50:06.900Z,1.30
2018-05-26T09:52:34.309Z,1.00
2018-05-26T09:55:01.731Z,1.50
2018-05-26T09:57:29.168Z,1.80
2018-05-26T09:59:57.344Z,1.00
2018-05-26T10:02:24.765Z,1.00
2018-05-26T10:04:52.175Z,1.00
2018-05-26T10:07:19.589Z,1.00
2018-05-26T10:09:47.041Z,1.00
2018-05-26T10:12:15.240Z,1.00
2018-05-26T10:14:42.664Z,1.00
2018-05-26T10:17:10.084Z,1.00
2018-05-26T10:19:37.488Z,1.00
2018-05-26T10:22:04.915Z,1.00
2018-05-26T10:24:32.348Z,1.00
2018-05-26T10:26:59.852Z,1.00
2018-05-26T10:29:28.017Z,1.00
2018-05-26T10:31:56.225Z,1.00
2018-05-26T10:34:23.632Z,1.00
2018-05-26T10:36:51.076Z,1.00
2018-05-26T10:39:18.477Z,1.00
2018-05-26T10:41:45.902Z,1.00
2018-05-26T10:44:14.080Z,1.00
2018-05-26T10:46:42.261Z,1.00
2018-05-26T10:49:10.467Z,1.00
2018-05-26T10:51:37.863Z,1.00
2018-05-26T10:54:05.263Z,1.00
2018-05-26T10:56:32.704Z,1.00
2018-05-26T10:59:00.909Z,1.00
2018-05-26T11:01:28.334Z,1.00
2018-05-26T11:03:55.761Z,1.00
2018-05-26T11:06:23.180Z,1.00
2018-05-26T11:08:50.603Z,1.00
2018-05-26T11:11:18.789Z,1.00
2018-05-26T11:13:46.229Z,1.00
2018-05-26T11:16:13.873Z,1.00
2018-05-26T11:18:41.096Z,1.00
2018-05-26T11:21:08.526Z,1.00
2018-05-26T11:23:35.942Z,1.00
2018-05-26T11:26:03.367Z,1.00
2018-05-26T11:28:30.792Z,1.00
2018-05-26T11:30:59.016Z,1.00
2018-05-26T11:33:27.157Z,1.00
2018-05-26T11:35:54.568Z,1.00
2018-05-26T11:38:21.980Z,1.00
2018-05-26T11:40:49.479Z,1.00
2018-05-26T11:43:16.906Z,1.00
2018-05-26T11:45:44.328Z,1.00
2018-05-26T11:48:12.489Z,1.00
2018-05-26T11:50:40.696Z,1.00
2018-05-26T11:53:08.120Z,1.00
2018-05-26T11:55:35.551Z,1.00
2018-05-26T11:58:02.951Z,1.00
2018-05-26T12:00:30.368Z,1.00
2018-05-26T12:02:57.784Z,1.00
2018-05-26T12:05:25.200Z,1.00
2018-05-26T12:07:53.527Z,1.00
2018-05-26T12:10:20.940Z,1.00
2018-05-26T12:12:48.389Z,1.00
2018-05-26T12:15:15.802Z,1.00
2018-05-26T12:17:43.230Z,1.00
2018-05-26T12:20:10.664Z,1.00
2018-05-26T12:22:38.092Z,1.00
2018-05-26T12:25:06.271Z,1.00
2018-05-26T12:27:33.704Z,1.00
2018-05-26T12:30:01.136Z,1.00
2018-05-26T12:32:29.303Z,1.00
2018-05-26T12:34:56.714Z,1.00
2018-05-26T12:37:24.131Z,1.00
2018-05-26T12:39:51.555Z,1.00
2018-05-26T12:42:18.975Z,1.00
2018-05-26T12:44:46.411Z,1.00
2018-05-26T12:47:13.836Z,1.00
2018-05-26T12:49:42.026Z,1.00
2018-05-26T12:52:10.210Z,1.00
2018-05-26T12:54:37.628Z,1.00
2018-05-26T12:57:05.038Z,1.00
2018-05-26T12:59:33.212Z,1.00
2018-05-26T13:02:01.413Z,1.00
2018-05-26T13:04:29.635Z,1.00
2018-05-26T13:06:57.045Z,1.00
2018-05-26T13:09:25.239Z,1.00
2018-05-26T13:11:52.669Z,1.00
2018-05-26T13:14:20.077Z,1.00
2018-05-26T13:16:47.553Z,1.00
2018-05-26T13:19:15.825Z,1.00
2018-05-26T13:21:43.232Z,1.00
2018-05-26T13:24:10.679Z,1.00
2018-05-26T13:26:38.080Z,1.00
2018-05-26T13:29:05.513Z,1.00
2018-05-26T13:31:32.941Z,1.00
2018-05-26T13:34:00.396Z,1.00
2018-05-26T13:36:27.792Z,1.00
2018-05-26T13:38:55.211Z,1.00
2018-05-26T13:41:23.384Z,1.00
2018-05-26T13:43:51.575Z,1.00
2018-05-26T13:46:18.988Z,1.00
2018-05-26T13:48:46.421Z,1.00
2018-05-26T13:51:13.918Z,1.00
2018-05-26T13:53:41.289Z,1.00
2018-05-26T13:56:09.513Z,1.00
2018-05-26T13:58:37.623Z,1.00
2018-05-26T14:01:05.812Z,1.00
2018-05-26T14:03:34.012Z,1.00
2018-05-26T14:06:02.195Z,1.00
2018-05-26T14:08:29.626Z,1.00
2018-05-26T14:10:57.063Z,1.00
2018-05-26T14:13:24.487Z,1.00
2018-05-26T14:15:52.667Z,1.00
2018-05-26T14:18:20.082Z,1.00
2018-05-26T14:20:47.510Z,1.00
2018-05-26T14:23:15.713Z,1.00
2018-05-26T14:25:43.883Z,1.00
2018-05-26T14:28:12.100Z,1.00
2018-05-26T14:30:39.575Z,1.00
2018-05-26T14:33:06.952Z,1.00
2018-05-26T14:35:34.366Z,1.00
2018-05-26T14:38:01.811Z,1.00
2018-05-26T14:40:29.227Z,1.00
2018-05-26T14:42:57.427Z,1.00
2018-05-26T14:45:24.856Z,1.00
2018-05-26T14:47:52.273Z,1.00
2018-05-26T14:50:19.701Z,1.00
2018-05-26T14:52:47.121Z,1.00
2018-05-26T14:55:14.578Z,1.00
2018-05-26T14:57:41.988Z,1.00
2018-05-26T15:00:09.416Z,1.00
2018-05-26T15:02:36.837Z,1.00
2018-05-26T15:05:04.296Z,1.00
2018-05-26T15:07:31.728Z,1.00
2018-05-26T15:09:59.128Z,1.00
2018-05-26T15:12:26.565Z,1.00
2018-05-26T15:14:54.061Z,1.00
2018-05-26T15:17:21.476Z,1.00
2018-05-26T15:19:49.665Z,1.00
2018-05-26T15:22:17.893Z,1.00
2018-05-26T15:24:45.309Z,1.00
2018-05-26T15:27:13.511Z,1.00
2018-05-26T15:29:41.715Z,1.00
2018-05-26T15:32:09.881Z,1.00
2018-05-26T15:34:38.065Z,1.00
2018-05-26T15:37:06.272Z,1.00
2018-05-26T15:39:34.131Z,1.00
2018-05-26T15:42:02.326Z,1.00
2018-05-26T15:44:30.530Z,1.00
2018-05-26T15:46:57.958Z,1.00
2018-05-26T15:49:25.369Z,1.00
2018-05-26T15:51:52.802Z,1.00
2018-05-26T15:54:20.984Z,1.00
2018-05-26T15:56:49.183Z,1.00
2018-05-26T15:59:16.623Z,1.00
2018-05-26T16:01:44.033Z,1.00
2018-05-26T16:04:11.512Z,1.00
2018-05-26T16:06:38.928Z,1.00
2018-05-26T16:09:06.369Z,1.00
2018-05-26T16:11:33.785Z,1.00
2018-05-26T16:14:01.992Z,1.00
2018-05-26T16:16:29.542Z,1.00
2018-05-26T16:18:56.965Z,1.00
2018-05-26T16:21:24.388Z,1.00
2018-05-26T16:23:52.567Z,1.00
2018-05-26T16:26:20.765Z,1.00
2018-05-26T16:28:48.957Z,1.00
2018-05-26T16:31:17.151Z,1.00
2018-05-26T16:33:44.609Z,1.00
2018-05-26T16:36:12.775Z,1.00
2018-05-26T16:38:40.196Z,1.00
2018-05-26T16:41:07.653Z,1.00
2018-05-26T16:43:35.071Z,1.00
2018-05-26T16:46:02.492Z,1.00
2018-05-26T16:48:29.921Z,1.00
2018-05-26T16:50:58.143Z,1.00
2018-05-26T16:53:25.546Z,1.00
2018-05-26T16:55:52.981Z,1.00
2018-05-26T16:58:20.404Z,1.00
2018-05-26T17:00:48.577Z,1.00
2018-05-26T17:03:16.000Z,1.00
2018-05-26T17:05:43.416Z,1.00
2018-05-26T17:08:10.830Z,1.00
2018-05-26T17:10:38.266Z,1.00
2018-05-26T17:13:05.693Z,1.00
2018-05-26T17:15:33.097Z,1.00
2018-05-26T17:18:00.520Z,1.00
2018-05-26T17:20:27.962Z,1.00
2018-05-26T17:22:56.134Z,1.00
2018-05-26T17:25:24.326Z,1.00
2018-05-26T17:27:52.516Z,1.00
2018-05-26T17:30:20.700Z,1.00
2018-05-26T17:32:48.882Z,1.00
2018-05-26T17:35:16.305Z,1.00
2018-05-26T17:37:43.768Z,1.00
2018-05-26T17:40:11.199Z,1.00
2018-05-26T17:42:39.389Z,1.00
2018-05-26T17:45:07.566Z,1.00
2018-05-26T17:47:35.759Z,1.00
2018-05-26T17:50:03.959Z,1.00
2018-05-26T17:52:31.390Z,1.00
2018-05-26T17:54:59.602Z,1.00
2018-05-26T17:57:27.018Z,1.00
2018-05-26T17:59:54.463Z,1.00
2018-05-26T18:02:21.865Z,1.00
2018-05-26T18:04:49.296Z,1.00
2018-05-26T18:07:16.717Z,1.00
2018-05-26T18:09:44.151Z,1.00
2018-05-26T18:12:11.565Z,1.00
2018-05-26T18:14:39.757Z,1.00
2018-05-26T18:17:07.927Z,1.00
2018-05-26T18:19:36.122Z,1.00
2018-05-26T18:22:04.320Z,1.00
2018-05-26T18:24:31.741Z,1.00
2018-05-26T18:26:59.155Z,1.00
2018-05-26T18:29:26.559Z,1.00
2018-05-26T18:31:54.022Z,1.00
2018-05-26T18:34:21.430Z,1.00
2018-05-26T18:36:48.852Z,1.00
2018-05-26T18:39:16.272Z,1.00
2018-05-26T18:41:43.696Z,1.00
2018-05-26T18:44:11.108Z,1.00
2018-05-26T18:46:38.539Z,1.00
2018-05-26T18:49:05.967Z,1.00
2018-05-26T18:51:34.152Z,1.00
2018-05-26T18:54:01.560Z,1.00
2018-05-26T18:56:28.994Z,1.00
2018-05-26T18:58:56.415Z,1.00
2018-05-26T19:01:23.816Z,1.00
2018-05-26T19:03:51.999Z,1.00
2018-05-26T19:06:20.181Z,1.00
2018-05-26T19:08:48.367Z,1.00
2018-05-26T19:11:15.802Z,1.00
2018-05-26T19:13:43.212Z,1.00
2018-05-26T19:16:11.411Z,1.00
2018-05-26T19:18:39.718Z,1.00
2018-05-26T19:21:07.155Z,1.00
2018-05-26T19:23:34.566Z,1.00
2018-05-26T19:26:01.989Z,1.00
2018-05-26T19:28:29.413Z,1.00
2018-05-26T19:30:56.825Z,1.00
2018-05-26T19:33:24.240Z,1.00
2018-05-26T19:35:51.667Z,1.00
2018-05-26T19:38:19.471Z,1.00
2018-05-26T19:40:46.898Z,1.00
2018-05-26T19:43:14.315Z,1.00
2018-05-26T19:45:41.741Z,1.00
2018-05-26T19:48:09.936Z,1.00
2018-05-26T19:50:38.124Z,1.00
2018-05-26T19:53:06.310Z,1.00
2018-05-26T19:55:34.480Z,1.00
2018-05-26T19:58:01.902Z,1.00
2018-05-26T20:00:29.321Z,1.00
2018-05-26T20:02:56.753Z,1.00
2018-05-26T20:05:24.171Z,1.00
2018-05-26T20:07:52.369Z,1.00
2018-05-26T20:10:20.538Z,1.00
2018-05-26T20:12:48.713Z,1.00
2018-05-26T20:15:16.157Z,1.00
2018-05-26T20:17:43.565Z,1.00
2018-05-26T20:20:11.760Z,1.00
2018-05-26T20:22:39.957Z,1.00
2018-05-26T20:25:08.132Z,1.00
2018-05-26T20:27:36.317Z,1.00
2018-05-26T20:30:04.518Z,1.00
2018-05-26T20:32:32.704Z,1.00
2018-05-26T20:35:00.153Z,1.00
2018-05-26T20:37:27.541Z,1.00
2018-05-26T20:39:54.965Z,1.00
2018-05-26T20:42:22.384Z,1.00
2018-05-26T20:44:49.813Z,1.00
2018-05-26T20:47:17.259Z,1.00
2018-05-26T20:49:44.671Z,1.00
2018-05-26T20:52:12.866Z,1.00
2018-05-26T20:54:41.049Z,1.00
2018-05-26T20:57:09.282Z,1.00
2018-05-26T20:59:36.694Z,1.00
2018-05-26T21:02:04.878Z,1.00
2018-05-26T21:04:33.049Z,1.00
2018-05-26T21:07:00.503Z,1.00
2018-05-26T21:09:27.921Z,1.00
2018-05-26T21:11:55.356Z,1.00
2018-05-26T21:14:22.788Z,1.00
2018-05-26T21:16:50.200Z,1.00
2018-05-26T21:19:17.621Z,1.00
2018-05-26T21:21:45.050Z,1.00
2018-05-26T21:24:13.231Z,1.00
2018-05-26T21:26:41.416Z,1.00
2018-05-26T21:29:09.609Z,1.00
2018-05-26T21:31:37.031Z,1.00
2018-05-26T21:34:04.447Z,1.00
2018-05-26T21:36:32.632Z,1.00
2018-05-26T21:39:00.058Z,1.00
2018-05-26T21:41:27.464Z,1.00
2018-05-26T21:43:55.643Z,1.00
2018-05-26T21:46:23.859Z,1.00
2018-05-26T21:48:51.292Z,1.00
2018-05-26T21:51:18.723Z,1.00
2018-05-26T21:53:46.135Z,1.00
2018-05-26T21:56:13.559Z,1.00
2018-05-26T21:58:40.985Z,1.00
2018-05-26T22:01:09.164Z,1.00
2018-05-26T22:03:37.345Z,1.00
2018-05-26T22:06:04.773Z,1.00
2018-05-26T22:08:32.191Z,1.00
2018-05-26T22:11:00.381Z,1.00
2018-05-26T22:13:28.560Z,1.00
2018-05-26T22:15:56.759Z,1.00
2018-05-26T22:18:24.990Z,1.00
2018-05-26T22:20:53.142Z,1.00
2018-05-26T22:23:21.327Z,1.00
2018-05-26T22:25:49.500Z,1.00
2018-05-26T22:28:17.688Z,2.60
2018-05-26T22:30:45.866Z,4.60
2018-05-26T22:33:13.285Z,4.70
2018-05-26T22:35:40.755Z,7.60
2018-05-26T22:38:08.900Z,11.10
2018-05-26T22:40:37.078Z,12.90
2018-05-26T22:43:05.281Z,13.20
2018-05-26T22:45:32.698Z,13.10
2018-05-26T22:48:00.158Z,12.40
2018-05-26T22:50:27.576Z,12.40
2018-05-26T22:52:55.017Z,13.20
2018-05-26T22:55:22.423Z,14.50
2018-05-26T22:57:49.841Z,15.00
2018-05-26T23:00:17.264Z,15.20
2018-05-26T23:02:44.672Z,17.50
2018-05-26T23:05:12.089Z,18.90
2018-05-26T23:07:40.293Z,21.80
2018-05-26T23:10:07.708Z,21.60
2018-05-26T23:12:35.134Z,19.80
2018-05-26T23:15:02.571Z,19.40
2018-05-26T23:17:30.774Z,20.20
2018-05-26T23:19:58.954Z,20.50
2018-05-26T23:22:27.138Z,20.00
2018-05-26T23:24:55.339Z,21.50
2018-05-26T23:27:23.507Z,22.40
2018-05-26T23:29:51.704Z,23.00
2018-05-26T23:32:19.888Z,24.10
2018-05-26T23:34:47.310Z,23.80
2018-05-26T23:37:14.728Z,24.10
2018-05-26T23:39:42.155Z,23.00
2018-05-26T23:42:09.581Z,22.80
2018-05-26T23:44:37.004Z,22.40
2018-05-26T23:47:04.432Z,22.60
2018-05-26T23:49:31.868Z,23.00
2018-05-26T23:51:59.277Z,24.50
2018-05-26T23:54:26.723Z,25.30
2018-05-26T23:56:54.155Z,24.00
2018-05-26T23:59:22.359Z,23.70
